createdAt,value
2023-05-08T00:00:05.089Z,101056.50
2023-05-08T00:02:51.733Z,101055.47
2023-05-08T00:05:18.974Z,101052.66
2023-05-08T00:07:45.763Z,101060.97
2023-05-08T00:10:12.779Z,101055.72
2023-05-08T00:12:39.959Z,101062.06
2023-05-08T00:15:07.145Z,101064.00
2023-05-08T00:17:34.706Z,101062.50
2023-05-08T00:20:02.327Z,101056.88
2023-05-08T00:22:28.811Z,101063.69
2023-05-08T00:24:55.334Z,101061.22
2023-05-08T00:27:21.800Z,101062.41
2023-05-08T00:29:48.602Z,101066.41
2023-05-08T00:32:15.975Z,101065.16
2023-05-08T00:34:42.835Z,101074.47
2023-05-08T00:37:09.310Z,101072.03
2023-05-08T00:39:35.780Z,101079.16
2023-05-08T00:42:02.464Z,101083.91
2023-05-08T00:44:29.092Z,101082.34
2023-05-08T00:46:56.037Z,101080.00
2023-05-08T00:49:23.184Z,101073.50
2023-05-08T00:51:52.419Z,101088.72
2023-05-08T00:54:19.427Z,101078.34
2023-05-08T00:56:47.104Z,101086.81
2023-05-08T00:59:16.184Z,101083.63
2023-05-08T01:01:43.608Z,101088.38
2023-05-08T01:04:10.820Z,101088.78
2023-05-08T01:06:38.073Z,101089.56
2023-05-08T01:09:04.923Z,101084.06
2023-05-08T01:11:37.720Z,101091.28
2023-05-08T01:14:19.292Z,101091.63
2023-05-08T01:17:11.785Z,101087.19
2023-05-08T01:19:59.804Z,101088.81
2023-05-08T01:22:44.864Z,101088.84
2023-05-08T01:25:44.028Z,101094.84
2023-05-08T01:28:32.536Z,101098.94
2023-05-08T01:31:11.818Z,101106.16
2023-05-08T01:33:46.052Z,101100.97
2023-05-08T01:36:31.255Z,101091.03
2023-05-08T01:39:09.598Z,101098.94
2023-05-08T01:41:39.412Z,101100.84
2023-05-08T01:44:13.286Z,101100.78
2023-05-08T01:46:39.828Z,101097.97
2023-05-08T01:49:12.137Z,101098.44
2023-05-08T01:51:58.086Z,101093.75
2023-05-08T01:54:28.356Z,101105.44
2023-05-08T01:56:57.882Z,101108.69
2023-05-08T01:59:28.165Z,101100.63
2023-05-08T02:01:57.188Z,101103.81
2023-05-08T02:04:25.643Z,101117.47
2023-05-08T02:06:53.435Z,101108.59
2023-05-08T02:09:22.516Z,101111.28
2023-05-08T02:11:50.575Z,101111.66
2023-05-08T02:14:19.935Z,101108.03
2023-05-08T02:16:49.969Z,101110.09
2023-05-08T02:19:18.666Z,101107.66
2023-05-08T02:21:47.047Z,101114.88
2023-05-08T02:24:14.888Z,101112.81
2023-05-08T02:26:43.898Z,101114.38
2023-05-08T02:29:11.277Z,101108.88
2023-05-08T02:31:39.611Z,101109.78
2023-05-08T02:34:08.316Z,101113.66
2023-05-08T02:36:36.521Z,101107.22
2023-05-08T02:39:03.679Z,101104.03
2023-05-08T02:41:33.338Z,101117.63
2023-05-08T02:44:00.132Z,101113.75
2023-05-08T02:46:41.655Z,101116.47
2023-05-08T02:49:20.288Z,101105.59
2023-05-08T02:51:59.928Z,101120.84
2023-05-08T02:54:36.517Z,101116.88
2023-05-08T02:57:18.699Z,101117.75
2023-05-08T02:59:56.833Z,101114.13
2023-05-08T03:02:32.250Z,101119.28
2023-05-08T03:05:32.606Z,101125.25
2023-05-08T03:08:03.245Z,101128.75
2023-05-08T03:10:33.881Z,101127.16
2023-05-08T03:13:04.698Z,101132.38
2023-05-08T03:15:40.889Z,101129.56
2023-05-08T03:18:12.473Z,101133.28
2023-05-08T03:20:43.285Z,101123.31
2023-05-08T03:23:13.178Z,101129.91
2023-05-08T03:25:43.370Z,101136.22
2023-05-08T03:28:11.317Z,101141.44
2023-05-08T03:30:40.971Z,101139.34
2023-05-08T03:33:08.535Z,101133.38
2023-05-08T03:35:37.374Z,101140.63
2023-05-08T03:38:08.283Z,101136.63
2023-05-08T03:40:39.069Z,101140.69
2023-05-08T03:43:07.937Z,101141.47
2023-05-08T03:45:38.984Z,101143.09
2023-05-08T03:48:07.190Z,101146.63
2023-05-08T03:50:35.757Z,101145.44
2023-05-08T03:53:03.302Z,101137.81
2023-05-08T03:55:33.087Z,101136.63
2023-05-08T03:58:06.170Z,101145.41
2023-05-08T04:00:47.854Z,101141.31
2023-05-08T04:03:24.847Z,101146.81
2023-05-08T04:06:22.726Z,101146.44
2023-05-08T04:08:55.315Z,101148.81
2023-05-08T04:11:30.391Z,101149.97
2023-05-08T04:14:03.742Z,101156.09
2023-05-08T04:16:37.107Z,101155.56
2023-05-08T04:19:10.883Z,101155.91
2023-05-08T04:21:42.801Z,101154.06
2023-05-08T04:24:14.781Z,101159.16
2023-05-08T04:26:42.993Z,101155.53
2023-05-08T04:29:10.549Z,101163.06
2023-05-08T04:31:39.798Z,101160.88
2023-05-08T04:34:09.164Z,101163.31
2023-05-08T04:36:35.909Z,101162.50
2023-05-08T04:39:02.477Z,101156.94
2023-05-08T04:41:29.303Z,101154.94
2023-05-08T04:43:56.006Z,101163.31
2023-05-08T04:46:24.406Z,101155.16
2023-05-08T04:48:51.016Z,101161.59
2023-05-08T04:51:17.764Z,101168.03
2023-05-08T04:53:44.645Z,101170.13
2023-05-08T04:56:11.265Z,101167.78
2023-05-08T04:58:38.029Z,101176.22
2023-05-08T05:01:04.985Z,101177.88
2023-05-08T05:03:31.626Z,101172.22
2023-05-08T05:05:59.377Z,101174.56
2023-05-08T05:08:26.758Z,101173.00
2023-05-08T05:10:53.526Z,101165.00
2023-05-08T05:13:20.582Z,101170.59
2023-05-08T05:15:47.313Z,101175.47
2023-05-08T05:18:13.807Z,101173.06
2023-05-08T05:20:40.563Z,101173.50
2023-05-08T05:23:07.301Z,101168.31
2023-05-08T05:25:34.780Z,101173.94
2023-05-08T05:28:02.057Z,101180.31
2023-05-08T05:30:28.922Z,101182.88
2023-05-08T05:32:55.985Z,101187.28
2023-05-08T05:35:24.968Z,101187.81
2023-05-08T05:37:52.739Z,101183.88
2023-05-08T05:40:20.143Z,101182.06
2023-05-08T05:42:53.422Z,101193.19
2023-05-08T05:45:20.068Z,101194.00
2023-05-08T05:47:53.864Z,101196.03
2023-05-08T05:50:23.461Z,101197.78
2023-05-08T05:52:50.028Z,101198.34
2023-05-08T05:55:17.074Z,101201.22
2023-05-08T05:57:44.078Z,101208.91
2023-05-08T06:00:11.270Z,101211.44
2023-05-08T06:02:39.170Z,101216.91
2023-05-08T06:05:07.035Z,101210.66
2023-05-08T06:07:33.557Z,101208.28
2023-05-08T06:10:00.368Z,101208.03
2023-05-08T06:12:28.337Z,101205.69
2023-05-08T06:14:55.149Z,101208.03
2023-05-08T06:17:22.160Z,101212.81
2023-05-08T06:19:53.934Z,101204.28
2023-05-08T06:22:23.218Z,101211.84
2023-05-08T06:24:53.410Z,101216.19
2023-05-08T06:27:23.296Z,101216.66
2023-05-08T06:29:53.373Z,101217.84
2023-05-08T06:32:20.996Z,101218.72
2023-05-08T06:34:48.389Z,101223.41
2023-05-08T06:37:15.360Z,101210.94
2023-05-08T06:39:41.801Z,101217.00
2023-05-08T06:42:08.859Z,101211.75
2023-05-08T06:44:36.269Z,101217.03
2023-05-08T06:47:03.295Z,101214.16
2023-05-08T06:49:29.932Z,101221.44
2023-05-08T06:51:57.976Z,101227.50
2023-05-08T06:54:25.046Z,101230.63
2023-05-08T06:56:54.014Z,101232.91
2023-05-08T06:59:23.106Z,101227.41
2023-05-08T07:01:50.102Z,101239.41
2023-05-08T07:04:16.662Z,101235.78
2023-05-08T07:06:43.241Z,101228.75
2023-05-08T07:09:10.644Z,101238.09
2023-05-08T07:11:37.579Z,101236.09
2023-05-08T07:14:04.569Z,101231.34
2023-05-08T07:16:31.054Z,101234.94
2023-05-08T07:18:57.700Z,101244.50
2023-05-08T07:21:24.964Z,101239.91
2023-05-08T07:23:53.623Z,101239.41
2023-05-08T07:26:20.067Z,101233.00
2023-05-08T07:28:47.326Z,101237.78
2023-05-08T07:31:14.037Z,101227.56
2023-05-08T07:33:40.874Z,101237.25
2023-05-08T07:36:08.199Z,101234.16
2023-05-08T07:38:34.635Z,101228.59
2023-05-08T07:41:02.052Z,101235.41
2023-05-08T07:43:28.864Z,101226.44
2023-05-08T07:45:55.471Z,101226.59
2023-05-08T07:48:22.134Z,101216.91
2023-05-08T07:50:51.908Z,101226.97
2023-05-08T07:53:18.353Z,101225.00
2023-05-08T07:55:44.775Z,101229.19
2023-05-08T07:58:11.412Z,101220.38
2023-05-08T08:00:37.840Z,101220.91
2023-05-08T08:03:05.154Z,101230.28
2023-05-08T08:05:31.929Z,101230.34
2023-05-08T08:07:58.792Z,101231.63
2023-05-08T08:10:25.896Z,101242.81
2023-05-08T08:12:52.288Z,101244.72
2023-05-08T08:15:19.430Z,101241.47
2023-05-08T08:17:46.643Z,101249.56
2023-05-08T08:20:13.769Z,101242.34
2023-05-08T08:22:40.659Z,101247.47
2023-05-08T08:25:07.820Z,101245.91
2023-05-08T08:27:34.525Z,101251.16
2023-05-08T08:30:15.161Z,101251.63
2023-05-08T08:32:43.995Z,101246.84
2023-05-08T08:35:11.261Z,101246.94
2023-05-08T08:37:38.114Z,101248.22
2023-05-08T08:40:05.425Z,101247.88
2023-05-08T08:42:33.885Z,101251.41
2023-05-08T08:45:01.120Z,101247.38
2023-05-08T08:47:29.728Z,101239.78
2023-05-08T08:49:58.902Z,101249.00
2023-05-08T08:52:56.343Z,101245.03
2023-05-08T08:55:23.682Z,101253.38
2023-05-08T08:57:59.141Z,101247.00
2023-05-08T09:00:30.918Z,101247.00
2023-05-08T09:02:58.058Z,101247.66
2023-05-08T09:05:26.361Z,101241.72
2023-05-08T09:07:56.345Z,101248.09
2023-05-08T09:10:24.494Z,101244.50
2023-05-08T09:12:51.776Z,101250.47
2023-05-08T09:15:18.473Z,101249.97
2023-05-08T09:17:45.027Z,101251.16
2023-05-08T09:20:14.852Z,101243.50
2023-05-08T09:22:43.590Z,101244.66
2023-05-08T09:25:10.630Z,101249.97
2023-05-08T09:27:37.450Z,101251.53
2023-05-08T09:30:05.789Z,101249.16
2023-05-08T09:32:34.318Z,101243.09
2023-05-08T09:35:02.279Z,101252.00
2023-05-08T09:37:30.024Z,101247.97
2023-05-08T09:40:21.658Z,101248.44
2023-05-08T09:42:50.175Z,101256.88
2023-05-08T09:45:33.221Z,101251.69
2023-05-08T09:47:59.868Z,101260.25
2023-05-08T09:50:27.672Z,101263.94
2023-05-08T09:52:54.270Z,101264.13
2023-05-08T09:55:20.940Z,101257.31
2023-05-08T09:57:58.857Z,101249.38
2023-05-08T10:00:27.317Z,101253.91
2023-05-08T10:03:02.807Z,101261.53
2023-05-08T10:05:32.382Z,101260.25
2023-05-08T10:08:19.034Z,101267.38
2023-05-08T10:10:45.967Z,101264.13
2023-05-08T10:13:12.619Z,101263.63
2023-05-08T10:15:41.647Z,101260.91
2023-05-08T10:18:11.833Z,101262.91
2023-05-08T10:20:40.888Z,101268.78
2023-05-08T10:23:11.396Z,101270.78
2023-05-08T10:25:44.621Z,101257.19
2023-05-08T10:28:36.620Z,101274.56
2023-05-08T10:31:05.527Z,101259.34
2023-05-08T10:33:34.949Z,101262.50
2023-05-08T10:36:02.605Z,101266.94
2023-05-08T10:38:31.062Z,101260.47
2023-05-08T10:41:01.087Z,101262.47
2023-05-08T10:43:30.937Z,101266.47
2023-05-08T10:46:02.231Z,101264.06
2023-05-08T10:48:43.799Z,101254.09
2023-05-08T10:51:20.439Z,101253.38
2023-05-08T10:53:59.223Z,101252.63
2023-05-08T10:56:27.225Z,101254.19
2023-05-08T10:58:58.810Z,101250.19
2023-05-08T11:01:26.478Z,101245.03
2023-05-08T11:03:55.531Z,101243.44
2023-05-08T11:06:44.551Z,101245.88
2023-05-08T11:09:19.769Z,101244.22
2023-05-08T11:11:54.763Z,101244.28
2023-05-08T11:14:23.346Z,101228.13
2023-05-08T11:17:02.144Z,101237.00
2023-05-08T11:19:29.394Z,101233.84
2023-05-08T11:22:12.938Z,101232.63
2023-05-08T11:24:41.347Z,101237.06
2023-05-08T11:27:07.893Z,101229.84
2023-05-08T11:29:36.084Z,101232.28
2023-05-08T11:32:02.656Z,101234.69
2023-05-08T11:34:46.038Z,101228.66
2023-05-08T11:37:24.082Z,101229.06
2023-05-08T11:39:50.901Z,101219.38
2023-05-08T11:42:29.617Z,101226.25
2023-05-08T11:45:06.575Z,101224.09
2023-05-08T11:47:42.454Z,101219.69
2023-05-08T11:50:10.492Z,101214.41
2023-05-08T11:52:40.315Z,101207.91
2023-05-08T11:55:11.623Z,101204.31
2023-05-08T11:57:39.289Z,101198.19
2023-05-08T12:00:10.892Z,101207.63
2023-05-08T12:02:42.561Z,101209.47
2023-05-08T12:05:11.110Z,101201.38
2023-05-08T12:07:46.150Z,101204.41
2023-05-08T12:10:14.210Z,101204.84
2023-05-08T12:12:43.328Z,101203.56
2023-05-08T12:15:15.010Z,101209.53
2023-05-08T12:17:42.569Z,101200.56
2023-05-08T12:20:15.414Z,101206.72
2023-05-08T12:22:43.640Z,101208.22
2023-05-08T12:25:11.852Z,101204.88
2023-05-08T12:27:39.063Z,101205.78
2023-05-08T12:30:11.053Z,101210.13
2023-05-08T12:32:39.396Z,101209.13
2023-05-08T12:35:08.165Z,101204.97
2023-05-08T12:37:36.492Z,101204.00
2023-05-08T12:40:04.455Z,101207.53
2023-05-08T12:42:49.674Z,101197.84
2023-05-08T12:45:24.942Z,101200.91
2023-05-08T12:47:53.071Z,101196.22
2023-05-08T12:50:21.190Z,101195.19
2023-05-08T12:52:51.358Z,101186.81
2023-05-08T12:55:24.806Z,101180.19
2023-05-08T12:58:00.691Z,101190.09
2023-05-08T13:00:38.784Z,101184.66
2023-05-08T13:03:06.451Z,101186.38
2023-05-08T13:05:35.514Z,101179.28
2023-05-08T13:08:07.309Z,101181.78
2023-05-08T13:10:49.378Z,101170.78
2023-05-08T13:13:18.680Z,101169.63
2023-05-08T13:15:45.630Z,101170.28
2023-05-08T13:18:12.325Z,101170.84
2023-05-08T13:20:39.551Z,101161.69
2023-05-08T13:23:08.917Z,101166.44
2023-05-08T13:25:37.122Z,101160.09
2023-05-08T13:28:04.795Z,101160.44
2023-05-08T13:30:31.711Z,101152.38
2023-05-08T13:32:58.648Z,101151.91
2023-05-08T13:35:25.489Z,101149.13
2023-05-08T13:37:52.276Z,101144.19
2023-05-08T13:40:18.999Z,101140.31
2023-05-08T13:42:45.444Z,101138.31
2023-05-08T13:45:14.702Z,101132.56
2023-05-08T13:47:46.122Z,101137.56
2023-05-08T13:50:15.812Z,101135.94
2023-05-08T13:52:42.819Z,101124.13
2023-05-08T13:55:11.373Z,101124.94
2023-05-08T13:57:38.978Z,101123.72
2023-05-08T14:00:07.055Z,101121.03
2023-05-08T14:02:35.172Z,101114.53
2023-05-08T14:05:01.914Z,101120.63
2023-05-08T14:07:29.983Z,101122.59
2023-05-08T14:09:56.613Z,101109.88
2023-05-08T14:12:23.135Z,101108.41
2023-05-08T14:14:49.763Z,101106.41
2023-05-08T14:17:16.154Z,101105.84
2023-05-08T14:19:43.248Z,101104.00
2023-05-08T14:22:09.854Z,101110.28
2023-05-08T14:24:36.438Z,101106.78
2023-05-08T14:27:05.858Z,101104.44
2023-05-08T14:29:36.126Z,101100.63
2023-05-08T14:32:02.715Z,101096.56
2023-05-08T14:34:29.590Z,101102.47
2023-05-08T14:36:56.289Z,101110.69
2023-05-08T14:39:22.840Z,101104.97
2023-05-08T14:42:10.384Z,101105.63
2023-05-08T14:44:36.721Z,101107.31
2023-05-08T14:47:03.539Z,101113.56
2023-05-08T14:49:37.338Z,101104.78
2023-05-08T14:52:05.990Z,101102.78
2023-05-08T14:54:32.859Z,101096.94
2023-05-08T14:56:59.679Z,101095.84
2023-05-08T14:59:26.355Z,101094.16
2023-05-08T15:01:52.783Z,101089.28
2023-05-08T15:04:19.587Z,101101.22
2023-05-08T15:06:46.067Z,101096.94
2023-05-08T15:09:12.771Z,101105.25
2023-05-08T15:11:40.205Z,101105.59
2023-05-08T15:14:06.975Z,101087.50
2023-05-08T15:16:33.710Z,101104.91
2023-05-08T15:19:00.640Z,101093.06
2023-05-08T15:21:28.496Z,101098.13
2023-05-08T15:23:56.279Z,101090.59
2023-05-08T15:26:23.294Z,101105.09
2023-05-08T15:28:49.796Z,101096.13
2023-05-08T15:31:17.039Z,101099.50
2023-05-08T15:33:44.908Z,101098.94
2023-05-08T15:36:13.314Z,101100.84
2023-05-08T15:38:41.217Z,101096.97
2023-05-08T15:41:07.838Z,101094.22
2023-05-08T15:43:34.552Z,101092.13
2023-05-08T15:46:01.085Z,101083.31
2023-05-08T15:48:27.740Z,101088.19
2023-05-08T15:50:54.421Z,101095.00
2023-05-08T15:53:20.950Z,101082.84
2023-05-08T15:55:47.670Z,101081.41
2023-05-08T15:58:14.344Z,101079.28
2023-05-08T16:00:45.244Z,101083.91
2023-05-08T16:03:12.543Z,101075.22
2023-05-08T16:05:39.446Z,101084.09
2023-05-08T16:08:07.398Z,101074.97
2023-05-08T16:10:34.093Z,101075.84
2023-05-08T16:13:00.564Z,101085.50
2023-05-08T16:15:26.928Z,101085.00
2023-05-08T16:17:53.833Z,101076.88
2023-05-08T16:20:20.376Z,101081.38
2023-05-08T16:22:47.460Z,101076.94
2023-05-08T16:25:14.815Z,101080.94
2023-05-08T16:27:42.059Z,101073.91
2023-05-08T16:30:09.672Z,101076.84
2023-05-08T16:32:36.767Z,101063.66
2023-05-08T16:35:03.548Z,101064.88
2023-05-08T16:37:30.044Z,101067.25
2023-05-08T16:39:56.515Z,101067.72
2023-05-08T16:42:22.990Z,101061.75
2023-05-08T16:44:49.444Z,101062.38
2023-05-08T16:47:16.516Z,101060.00
2023-05-08T16:49:43.225Z,101054.44
2023-05-08T16:52:09.889Z,101051.13
2023-05-08T16:54:36.630Z,101058.47
2023-05-08T16:57:03.278Z,101058.00
2023-05-08T16:59:29.894Z,101058.41
2023-05-08T17:01:56.811Z,101052.41
2023-05-08T17:04:23.375Z,101047.78
2023-05-08T17:06:49.915Z,101057.44
2023-05-08T17:09:18.333Z,101054.63
2023-05-08T17:11:45.565Z,101057.06
2023-05-08T17:14:13.211Z,101056.13
2023-05-08T17:16:39.758Z,101052.44
2023-05-08T17:19:06.679Z,101060.50
2023-05-08T17:21:33.121Z,101066.41
2023-05-08T17:24:00.594Z,101059.06
2023-05-08T17:26:27.358Z,101069.00
2023-05-08T17:28:53.937Z,101067.56
2023-05-08T17:31:20.749Z,101070.19
2023-05-08T17:33:47.828Z,101065.41
2023-05-08T17:36:15.199Z,101059.84
2023-05-08T17:38:45.758Z,101062.13
2023-05-08T17:41:13.117Z,101061.41
2023-05-08T17:43:40.461Z,101068.16
2023-05-08T17:46:07.713Z,101070.56
2023-05-08T17:48:34.508Z,101073.03
2023-05-08T17:51:02.583Z,101070.63
2023-05-08T17:53:30.643Z,101074.81
2023-05-08T17:55:57.674Z,101069.19
2023-05-08T17:58:25.140Z,101068.44
2023-05-08T18:00:52.009Z,101070.84
2023-05-08T18:03:19.150Z,101063.72
2023-05-08T18:05:46.656Z,101067.00
2023-05-08T18:08:13.776Z,101067.41
2023-05-08T18:10:40.786Z,101076.72
2023-05-08T18:13:07.876Z,101072.75
2023-05-08T18:15:38.902Z,101079.97
2023-05-08T18:18:05.748Z,101080.78
2023-05-08T18:20:32.534Z,101084.88
2023-05-08T18:22:58.906Z,101081.66
2023-05-08T18:25:25.698Z,101081.25
2023-05-08T18:27:52.245Z,101083.28
2023-05-08T18:30:18.958Z,101077.66
2023-05-08T18:32:46.444Z,101080.09
2023-05-08T18:35:13.938Z,101085.72
2023-05-08T18:37:40.540Z,101084.16
2023-05-08T18:40:08.092Z,101087.38
2023-05-08T18:42:34.898Z,101081.75
2023-05-08T18:45:02.941Z,101085.38
2023-05-08T18:47:29.442Z,101087.41
2023-05-08T18:49:57.707Z,101076.13
2023-05-08T18:52:24.373Z,101072.91
2023-05-08T18:54:50.909Z,101060.81
2023-05-08T18:57:17.761Z,101072.06
2023-05-08T18:59:44.501Z,101069.25
2023-05-08T19:02:10.963Z,101063.22
2023-05-08T19:04:37.590Z,101067.66
2023-05-08T19:07:04.028Z,101062.41
2023-05-08T19:09:30.512Z,101065.22
2023-05-08T19:11:57.178Z,101061.56
2023-05-08T19:14:23.698Z,101065.97
2023-05-08T19:16:51.458Z,101063.16
2023-05-08T19:19:18.215Z,101063.94
2023-05-08T19:21:45.600Z,101071.97
2023-05-08T19:24:13.940Z,101063.13
2023-05-08T19:26:41.208Z,101057.88
2023-05-08T19:29:07.714Z,101066.28
2023-05-08T19:31:34.350Z,101055.03
2023-05-08T19:34:01.023Z,101057.41
2023-05-08T19:36:28.308Z,101060.16
2023-05-08T19:38:55.221Z,101067.00
2023-05-08T19:41:21.796Z,101064.97
2023-05-08T19:43:48.908Z,101067.78
2023-05-08T19:46:15.807Z,101078.16
2023-05-08T19:48:42.977Z,101063.22
2023-05-08T19:51:11.575Z,101069.22
2023-05-08T19:53:39.701Z,101070.84
2023-05-08T19:56:06.214Z,101068.03
2023-05-08T19:58:32.936Z,101071.28
2023-05-08T20:00:59.654Z,101074.88
2023-05-08T20:03:26.347Z,101065.25
2023-05-08T20:05:53.532Z,101071.97
2023-05-08T20:08:20.300Z,101066.69
2023-05-08T20:10:48.926Z,101071.16
2023-05-08T20:13:17.145Z,101054.56
2023-05-08T20:15:45.115Z,101059.38
2023-05-08T20:18:12.262Z,101064.19
2023-05-08T20:20:40.243Z,101063.41
2023-05-08T20:23:08.048Z,101070.59
2023-05-08T20:25:34.787Z,101070.66
2023-05-08T20:28:01.934Z,101076.19
2023-05-08T20:30:28.798Z,101072.03
2023-05-08T20:32:55.611Z,101067.66
2023-05-08T20:35:23.956Z,101070.47
2023-05-08T20:37:51.348Z,101071.31
2023-05-08T20:40:18.073Z,101071.78
2023-05-08T20:42:45.097Z,101079.00
2023-05-08T20:45:13.018Z,101080.25
2023-05-08T20:47:40.062Z,101087.41
2023-05-08T20:50:07.382Z,101087.22
2023-05-08T20:52:35.361Z,101087.69
2023-05-08T20:55:05.424Z,101075.31
2023-05-08T20:57:31.826Z,101077.28
2023-05-08T20:59:58.527Z,101070.81
2023-05-08T21:02:25.509Z,101075.25
2023-05-08T21:04:52.838Z,101063.25
2023-05-08T21:07:20.261Z,101073.63
2023-05-08T21:09:46.837Z,101070.34
2023-05-08T21:12:13.438Z,101059.03
2023-05-08T21:14:39.846Z,101066.28
2023-05-08T21:17:06.264Z,101047.44
2023-05-08T21:19:32.892Z,101043.38
2023-05-08T21:21:59.589Z,101044.19
2023-05-08T21:24:26.256Z,101035.69
2023-05-08T21:26:53.347Z,101033.38
2023-05-08T21:29:20.024Z,101035.31
2023-05-08T21:31:46.556Z,101033.28
2023-05-08T21:34:13.423Z,101031.25
2023-05-08T21:36:39.868Z,101036.84
2023-05-08T21:39:07.161Z,101036.06
2023-05-08T21:41:33.887Z,101031.63
2023-05-08T21:44:00.498Z,101032.44
2023-05-08T21:46:27.451Z,101022.03
2023-05-08T21:48:54.002Z,101022.06
2023-05-08T21:51:20.544Z,101028.47
2023-05-08T21:53:48.115Z,101029.34
2023-05-08T21:56:16.463Z,101030.81
2023-05-08T21:58:43.094Z,101018.72
2023-05-08T22:01:09.565Z,101018.38
2023-05-08T22:03:36.895Z,101005.19
2023-05-08T22:06:03.549Z,101002.34
2023-05-08T22:08:30.257Z,101016.38
2023-05-08T22:10:57.769Z,101010.75
2023-05-08T22:13:24.547Z,101011.56
2023-05-08T22:15:51.339Z,101004.25
2023-05-08T22:18:19.633Z,101000.66
2023-05-08T22:20:46.824Z,101009.19
2023-05-08T22:23:13.272Z,101001.91
2023-05-08T22:25:39.782Z,100996.19
2023-05-08T22:28:06.487Z,100997.38
2023-05-08T22:30:33.658Z,101000.59
2023-05-08T22:33:00.813Z,100991.09
2023-05-08T22:35:27.636Z,101004.28
2023-05-08T22:37:54.575Z,100997.03
2023-05-08T22:40:22.175Z,100994.53
2023-05-08T22:42:51.539Z,100988.59
2023-05-08T22:45:18.480Z,100989.03
2023-05-08T22:47:45.412Z,100990.59
2023-05-08T22:50:13.849Z,100981.72
2023-05-08T22:52:40.551Z,100985.72
2023-05-08T22:55:07.781Z,100979.72
2023-05-08T22:57:34.399Z,100982.50
2023-05-08T23:00:01.476Z,100968.03
2023-05-08T23:02:33.189Z,100972.00
2023-05-08T23:05:02.031Z,100977.53
2023-05-08T23:07:30.149Z,100972.66
2023-05-08T23:09:56.633Z,100976.69
2023-05-08T23:12:23.592Z,100977.13
2023-05-08T23:14:50.080Z,100970.38
2023-05-08T23:17:16.925Z,100970.53
2023-05-08T23:19:45.254Z,100970.50
2023-05-08T23:22:12.007Z,100965.69
2023-05-08T23:24:38.609Z,100965.25
2023-05-08T23:27:05.233Z,100967.97
2023-05-08T23:29:33.001Z,100957.84
2023-05-08T23:32:00.281Z,100947.34
2023-05-08T23:34:26.980Z,100949.81
2023-05-08T23:36:54.688Z,100944.97
2023-05-08T23:39:23.029Z,100940.53
2023-05-08T23:41:49.488Z,100929.38
2023-05-08T23:44:17.328Z,100933.47
2023-05-08T23:46:43.975Z,100932.78
2023-05-08T23:49:10.943Z,100928.31
2023-05-08T23:51:37.495Z,100923.41
2023-05-08T23:54:05.865Z,100922.97
2023-05-08T23:56:32.906Z,100920.56
2023-05-08T23:58:59.697Z,100914.53
